createdAt,value
2023-05-21T00:06:41.194Z,7.90
2023-05-21T00:09:14.550Z,7.70
2023-05-21T00:11:44.439Z,8.30
2023-05-21T00:14:36.026Z,7.90
2023-05-21T00:17:03.888Z,7.70
2023-05-21T00:19:33.452Z,7.80
2023-05-21T00:22:28.099Z,7.60
2023-05-21T00:24:59.985Z,7.40
2023-05-21T00:27:35.574Z,7.40
2023-05-21T00:30:06.521Z,7.40
2023-05-21T00:32:33.754Z,7.00
2023-05-21T00:35:00.936Z,7.50
2023-05-21T00:37:32.406Z,6.90
2023-05-21T00:40:05.149Z,6.60
2023-05-21T00:42:32.147Z,7.00
2023-05-21T00:44:59.456Z,7.10
2023-05-21T00:47:29.029Z,6.80
2023-05-21T00:49:55.985Z,7.00
2023-05-21T00:52:26.353Z,7.10
2023-05-21T00:54:53.725Z,7.00
2023-05-21T00:57:22.443Z,7.00
2023-05-21T00:59:51.799Z,6.90
2023-05-21T01:02:18.793Z,6.90
2023-05-21T01:04:45.845Z,7.00
2023-05-21T01:07:14.033Z,7.00
2023-05-21T01:09:42.504Z,6.80
2023-05-21T01:12:10.886Z,6.90
2023-05-21T01:14:41.624Z,7.30
2023-05-21T01:17:09.976Z,6.70
2023-05-21T01:19:37.167Z,7.10
2023-05-21T01:22:06.573Z,7.00
2023-05-21T01:24:33.888Z,6.80
2023-05-21T01:27:06.029Z,6.30
2023-05-21T01:29:33.468Z,6.50
2023-05-21T01:32:38.264Z,7.50
2023-05-21T01:35:09.822Z,7.10
2023-05-21T01:37:41.118Z,7.40
2023-05-21T01:40:17.782Z,7.00
2023-05-21T01:42:46.014Z,7.70
2023-05-21T01:45:15.324Z,7.50
2023-05-21T01:47:47.166Z,7.30
2023-05-21T01:50:15.631Z,6.70
2023-05-21T01:53:08.683Z,6.70
2023-05-21T01:55:39.007Z,7.00
2023-05-21T01:58:05.899Z,7.20
2023-05-21T02:00:34.151Z,7.20
2023-05-21T02:03:01.427Z,7.30
2023-05-21T02:05:28.431Z,7.40
2023-05-21T02:07:55.357Z,7.20
2023-05-21T02:10:22.647Z,7.90
2023-05-21T02:12:49.575Z,7.80
2023-05-21T02:15:19.388Z,7.30
2023-05-21T02:20:14.039Z,7.50
2023-05-21T02:22:43.286Z,8.10
2023-05-21T02:25:12.234Z,7.80
2023-05-21T02:27:40.290Z,8.10
2023-05-21T02:30:09.355Z,7.90
2023-05-21T02:32:37.012Z,7.90
2023-05-21T02:35:04.695Z,7.20
2023-05-21T02:37:34.677Z,7.80
2023-05-21T02:40:03.718Z,8.30
2023-05-21T02:42:30.747Z,7.90
2023-05-21T02:44:57.827Z,8.00
2023-05-21T02:47:25.061Z,8.20
2023-05-21T02:49:52.621Z,8.10
2023-05-21T02:52:23.472Z,8.40
2023-05-21T02:54:51.481Z,7.70
2023-05-21T02:57:18.361Z,7.80
2023-05-21T02:59:45.537Z,8.70
2023-05-21T03:02:12.615Z,8.90
2023-05-21T03:04:46.104Z,8.80
2023-05-21T03:07:14.418Z,8.30
2023-05-21T03:09:41.834Z,8.40
2023-05-21T03:12:09.837Z,7.90
2023-05-21T03:14:37.730Z,8.70
2023-05-21T03:17:08.070Z,8.50
2023-05-21T03:19:35.843Z,8.30
2023-05-21T03:22:04.004Z,8.90
2023-05-21T03:24:32.569Z,11.40
2023-05-21T03:27:00.987Z,14.50
2023-05-21T03:29:28.295Z,11.50
2023-05-21T03:31:55.588Z,8.90
2023-05-21T03:34:23.016Z,10.20
2023-05-21T03:36:50.548Z,10.80
2023-05-21T03:39:17.554Z,9.10
2023-05-21T03:41:44.584Z,8.90
2023-05-21T03:44:11.679Z,9.00
2023-05-21T03:46:38.675Z,8.40
2023-05-21T03:49:05.824Z,8.80
2023-05-21T03:51:32.922Z,8.80
2023-05-21T03:54:00.837Z,8.40
2023-05-21T03:56:27.859Z,8.90
2023-05-21T03:58:54.895Z,8.70
2023-05-21T04:01:21.866Z,9.40
2023-05-21T04:03:48.938Z,8.90
2023-05-21T04:06:16.460Z,8.80
2023-05-21T04:08:44.023Z,8.70
2023-05-21T04:11:11.151Z,9.00
2023-05-21T04:13:38.403Z,8.60
2023-05-21T04:16:08.305Z,9.20
2023-05-21T04:18:35.244Z,9.10
2023-05-21T04:21:02.258Z,9.60
2023-05-21T04:23:29.214Z,8.80
2023-05-21T04:25:56.097Z,9.30
2023-05-21T04:28:23.709Z,9.30
2023-05-21T04:30:50.770Z,8.60
2023-05-21T04:33:19.657Z,9.20
2023-05-21T04:35:49.364Z,9.30
2023-05-21T04:38:19.199Z,8.60
2023-05-21T04:40:50.416Z,9.30
2023-05-21T04:43:18.118Z,9.40
2023-05-21T04:45:44.980Z,9.80
2023-05-21T04:48:12.178Z,9.40
2023-05-21T04:50:40.937Z,8.80
2023-05-21T04:53:08.233Z,9.70
2023-05-21T04:55:39.341Z,9.00
2023-05-21T04:58:12.224Z,9.20
2023-05-21T05:00:41.584Z,8.90
2023-05-21T05:03:08.546Z,8.80
2023-05-21T05:05:35.815Z,9.50
2023-05-21T05:08:03.614Z,9.40
2023-05-21T05:10:30.487Z,9.30
2023-05-21T05:12:57.745Z,8.90
2023-05-21T05:15:25.762Z,9.50
2023-05-21T05:17:54.087Z,9.60
2023-05-21T05:20:21.010Z,9.50
2023-05-21T05:22:47.981Z,9.30
2023-05-21T05:25:15.050Z,9.00
2023-05-21T05:27:41.918Z,9.00
2023-05-21T05:30:09.312Z,9.40
2023-05-21T05:32:36.251Z,9.20
2023-05-21T05:35:03.567Z,9.40
2023-05-21T05:37:30.550Z,8.90
2023-05-21T05:39:57.434Z,9.40
2023-05-21T05:42:24.387Z,9.60
2023-05-21T05:44:51.341Z,8.80
2023-05-21T05:47:18.211Z,9.40
2023-05-21T05:49:45.229Z,8.90
2023-05-21T05:52:12.331Z,9.50
2023-05-21T05:54:39.265Z,8.40
2023-05-21T05:57:06.173Z,9.50
2023-05-21T05:59:33.418Z,9.30
2023-05-21T06:02:00.944Z,9.50
2023-05-21T06:04:29.436Z,9.50
2023-05-21T06:06:59.986Z,9.60
2023-05-21T06:09:26.943Z,9.20
2023-05-21T06:11:54.021Z,8.90
2023-05-21T06:14:21.004Z,9.20
2023-05-21T06:16:47.883Z,9.50
2023-05-21T06:19:15.102Z,9.10
2023-05-21T06:21:42.140Z,9.30
2023-05-21T06:24:09.077Z,9.20
2023-05-21T06:26:36.122Z,9.10
2023-05-21T06:29:03.655Z,9.40
2023-05-21T06:31:32.448Z,9.00
2023-05-21T06:34:00.309Z,8.90
2023-05-21T06:36:29.389Z,9.30
2023-05-21T06:38:56.649Z,8.80
2023-05-21T06:41:23.879Z,9.10
2023-05-21T06:43:50.951Z,8.60
2023-05-21T06:46:18.002Z,8.40
2023-05-21T06:48:46.095Z,7.70
2023-05-21T06:51:13.184Z,7.90
2023-05-21T06:53:40.216Z,7.60
2023-05-21T06:56:07.322Z,7.90
2023-05-21T06:58:34.921Z,7.80
2023-05-21T07:01:01.996Z,7.70
2023-05-21T07:03:29.179Z,7.20
2023-05-21T07:05:57.537Z,7.40
2023-05-21T07:08:24.491Z,7.50
2023-05-21T07:10:51.462Z,8.70
2023-05-21T07:13:18.548Z,7.60
2023-05-21T07:15:45.499Z,7.00
2023-05-21T07:18:12.812Z,7.60
2023-05-21T07:20:40.440Z,7.20
2023-05-21T07:23:08.784Z,7.40
2023-05-21T07:25:36.259Z,6.50
2023-05-21T07:28:05.916Z,6.50
2023-05-21T07:30:33.505Z,6.80
2023-05-21T07:33:00.506Z,6.10
2023-05-21T07:35:28.545Z,5.90
2023-05-21T07:37:55.632Z,6.30
2023-05-21T07:40:22.657Z,5.60
2023-05-21T07:42:50.080Z,6.10
2023-05-21T07:45:17.181Z,5.60
2023-05-21T07:47:45.924Z,5.90
2023-05-21T07:50:13.820Z,5.50
2023-05-21T07:52:40.851Z,5.50
2023-05-21T07:55:08.848Z,5.60
2023-05-21T07:57:36.244Z,5.40
2023-05-21T08:00:06.391Z,5.40
2023-05-21T08:02:33.750Z,5.30
2023-05-21T08:05:01.300Z,6.00
2023-05-21T08:07:28.822Z,5.30
2023-05-21T08:09:57.644Z,5.10
2023-05-21T08:12:25.370Z,5.30
2023-05-21T08:14:52.370Z,5.90
2023-05-21T08:17:19.221Z,5.70
2023-05-21T08:19:46.108Z,5.40
2023-05-21T08:22:13.353Z,5.10
2023-05-21T08:24:40.875Z,5.20
2023-05-21T08:27:07.806Z,5.50
2023-05-21T08:29:34.877Z,5.70
2023-05-21T08:32:01.900Z,5.70
2023-05-21T08:34:28.843Z,5.80
2023-05-21T08:36:56.646Z,5.60
2023-05-21T08:39:23.534Z,6.00
2023-05-21T08:41:54.937Z,5.60
2023-05-21T08:44:25.900Z,5.50
2023-05-21T08:46:54.630Z,6.20
2023-05-21T08:49:27.303Z,6.10
2023-05-21T08:51:55.773Z,6.00
2023-05-21T08:54:23.645Z,5.50
2023-05-21T08:56:52.468Z,5.70
2023-05-21T08:59:21.193Z,5.90
2023-05-21T09:01:49.553Z,5.80
2023-05-21T09:04:21.341Z,5.50
2023-05-21T09:06:50.008Z,5.80
2023-05-21T09:09:27.663Z,5.90
2023-05-21T09:11:55.025Z,5.60
2023-05-21T09:14:23.326Z,5.50
2023-05-21T09:16:50.388Z,5.70
2023-05-21T09:19:20.637Z,5.80
2023-05-21T09:21:50.584Z,5.80
2023-05-21T09:24:22.236Z,5.70
2023-05-21T09:26:49.257Z,5.70
2023-05-21T09:29:16.472Z,5.60
2023-05-21T09:31:45.134Z,5.90
2023-05-21T09:34:13.639Z,6.50
2023-05-21T09:36:40.813Z,5.80
2023-05-21T09:39:29.620Z,5.60
2023-05-21T09:41:58.079Z,5.60
2023-05-21T09:44:25.151Z,5.80
2023-05-21T09:47:00.583Z,5.50
2023-05-21T09:49:27.649Z,5.70
2023-05-21T09:51:58.503Z,5.60
2023-05-21T09:54:30.831Z,5.80
2023-05-21T09:57:01.929Z,5.30
2023-05-21T09:59:37.964Z,5.90
2023-05-21T10:02:45.640Z,5.90
2023-05-21T10:05:35.799Z,5.30
2023-05-21T11:01:33.250Z,4.60
2023-05-21T11:04:01.545Z,4.80
2023-05-21T11:06:38.163Z,5.00
2023-05-21T11:09:24.779Z,5.50
2023-05-21T11:12:04.549Z,5.10
2023-05-21T11:14:36.363Z,5.10
2023-05-21T11:20:22.534Z,5.10
2023-05-21T11:22:52.965Z,4.90
2023-05-21T11:25:20.402Z,4.60
2023-05-21T11:28:45.800Z,4.90
2023-05-21T11:34:44.290Z,5.00
2023-05-21T11:37:43.480Z,4.80
2023-05-21T11:48:19.291Z,5.10
2023-05-21T11:50:58.615Z,5.10
2023-05-21T11:53:31.873Z,5.20
2023-05-21T11:56:02.176Z,5.10
2023-05-21T12:40:16.318Z,4.90
2023-05-21T12:42:44.569Z,4.90
2023-05-21T12:45:13.592Z,5.20
2023-05-21T12:47:41.883Z,5.00
2023-05-21T12:53:12.625Z,4.90
2023-05-21T12:55:46.397Z,4.80
2023-05-21T12:58:14.392Z,4.90
2023-05-21T13:03:51.960Z,5.10
2023-05-21T13:10:45.904Z,4.90
2023-05-21T13:13:16.314Z,5.00
2023-05-21T13:15:43.435Z,4.70
2023-05-21T13:22:09.851Z,5.10
2023-05-21T13:24:39.402Z,5.00
2023-05-21T13:27:36.745Z,5.10
2023-05-21T13:30:08.979Z,5.70
2023-05-21T13:32:36.439Z,5.10
2023-05-21T13:35:04.263Z,5.40
2023-05-21T13:37:38.610Z,5.50
2023-05-21T13:40:07.464Z,5.40
2023-05-21T13:42:37.204Z,5.30
2023-05-21T13:45:05.952Z,5.50
2023-05-21T13:47:33.262Z,4.80
2023-05-21T13:50:00.478Z,5.40
2023-05-21T13:52:27.428Z,5.60
2023-05-21T13:54:54.435Z,5.10
2023-05-21T13:57:22.182Z,5.50
2023-05-21T13:59:50.300Z,4.80
2023-05-21T14:02:17.330Z,5.00
2023-05-21T14:04:44.409Z,4.90
2023-05-21T14:07:11.586Z,4.30
2023-05-21T14:09:41.742Z,4.90
2023-05-21T14:12:08.864Z,5.20
2023-05-21T14:14:36.084Z,5.10
2023-05-21T14:17:03.214Z,4.90
2023-05-21T14:19:31.287Z,5.10
2023-05-21T14:21:59.415Z,4.70
2023-05-21T14:24:26.913Z,4.80
2023-05-21T14:26:53.906Z,6.60
2023-05-21T14:29:20.944Z,6.20
2023-05-21T14:31:48.372Z,5.40
2023-05-21T14:34:15.395Z,4.80
2023-05-21T14:36:42.390Z,5.00
2023-05-21T14:39:09.276Z,5.90
2023-05-21T14:41:39.176Z,4.80
2023-05-21T14:44:06.362Z,5.20
2023-05-21T14:46:33.409Z,4.90
2023-05-21T14:49:00.886Z,4.60
2023-05-21T14:51:28.002Z,4.50
2023-05-21T14:53:57.067Z,5.00
2023-05-21T14:56:26.806Z,4.40
2023-05-21T14:58:54.321Z,4.80
2023-05-21T15:01:24.896Z,4.80
2023-05-21T15:03:52.561Z,4.80
2023-05-21T15:06:20.068Z,5.20
2023-05-21T15:08:47.924Z,5.30
2023-05-21T15:11:15.780Z,5.00
2023-05-21T15:13:43.089Z,4.40
2023-05-21T15:16:16.562Z,4.70
2023-05-21T15:18:45.563Z,5.30
2023-05-21T15:21:13.609Z,5.50
2023-05-21T15:23:42.583Z,4.80
2023-05-21T15:26:17.513Z,5.20
2023-05-21T15:28:45.140Z,5.40
2023-05-21T15:31:23.928Z,4.90
2023-05-21T15:33:51.169Z,4.70
2023-05-21T15:36:18.252Z,4.80
2023-05-21T15:38:45.350Z,4.90
2023-05-21T15:41:12.346Z,5.10
2023-05-21T15:43:39.305Z,4.60
2023-05-21T15:46:06.428Z,4.10
2023-05-21T15:48:33.722Z,4.60
2023-05-21T15:51:56.888Z,4.80
2023-05-21T15:54:24.417Z,4.90
2023-05-21T15:56:51.615Z,5.00
2023-05-21T15:59:19.079Z,4.60
2023-05-21T16:01:47.236Z,4.40
2023-05-21T16:04:16.494Z,4.70
2023-05-21T16:06:43.586Z,4.70
2023-05-21T16:09:10.845Z,5.30
2023-05-21T16:11:38.541Z,5.20
2023-05-21T16:14:05.516Z,5.20
2023-05-21T16:16:33.763Z,4.10
2023-05-21T16:19:01.335Z,5.50
2023-05-21T16:21:28.361Z,5.60
2023-05-21T16:23:55.789Z,5.30
2023-05-21T16:26:22.709Z,6.30
2023-05-21T16:28:49.787Z,7.20
2023-05-21T16:31:16.876Z,6.40
2023-05-21T16:33:43.852Z,5.10
2023-05-21T16:36:10.853Z,5.30
2023-05-21T16:38:38.144Z,4.80
2023-05-21T16:41:05.218Z,4.50
2023-05-21T16:43:32.123Z,4.90
2023-05-21T16:45:59.110Z,5.70
2023-05-21T16:48:26.124Z,6.40
2023-05-21T16:50:52.987Z,8.20
2023-05-21T16:53:20.051Z,7.10
2023-05-21T16:55:47.170Z,7.90
2023-05-21T16:58:14.197Z,7.90
2023-05-21T17:00:41.199Z,6.30
2023-05-21T17:03:08.220Z,5.80
2023-05-21T17:05:35.707Z,6.10
2023-05-21T17:08:03.350Z,5.80
2023-05-21T17:10:32.466Z,5.40
2023-05-21T17:13:01.887Z,5.00
2023-05-21T17:15:33.840Z,4.80
2023-05-21T17:18:00.952Z,4.80
2023-05-21T17:20:27.969Z,4.60
2023-05-21T17:22:54.945Z,4.80
2023-05-21T17:25:21.960Z,5.40
2023-05-21T17:27:50.202Z,4.90
2023-05-21T17:30:17.218Z,4.40
2023-05-21T17:32:44.289Z,4.60
2023-05-21T17:35:11.265Z,3.90
2023-05-21T17:37:38.352Z,4.40
2023-05-21T17:40:06.341Z,4.20
2023-05-21T17:42:33.207Z,4.50
2023-05-21T17:45:00.641Z,4.60
2023-05-21T17:47:27.675Z,4.30
2023-05-21T17:50:22.416Z,4.50
2023-05-21T17:52:49.399Z,4.40
2023-05-21T17:55:16.631Z,4.50
2023-05-21T17:57:43.543Z,4.60
2023-05-21T18:00:10.996Z,4.90
2023-05-21T18:02:38.631Z,4.70
2023-05-21T18:05:05.823Z,4.50
2023-05-21T18:07:32.847Z,5.10
2023-05-21T18:09:59.843Z,4.60
2023-05-21T18:12:26.744Z,5.30
2023-05-21T18:14:53.951Z,5.20
2023-05-21T18:17:20.889Z,5.30
2023-05-21T18:19:47.843Z,5.60
2023-05-21T18:22:14.848Z,5.10
2023-05-21T18:24:42.205Z,5.50
2023-05-21T18:27:09.165Z,5.90
2023-05-21T18:29:36.556Z,7.40
2023-05-21T18:32:04.108Z,6.30
2023-05-21T18:34:31.159Z,6.70
2023-05-21T18:36:58.238Z,7.10
2023-05-21T18:39:27.186Z,7.90
2023-05-21T18:42:11.304Z,7.00
2023-05-21T18:44:39.752Z,6.80
2023-05-21T18:47:06.977Z,6.60
2023-05-21T18:49:35.289Z,6.40
2023-05-21T18:52:02.585Z,6.50
2023-05-21T18:54:29.483Z,5.90
2023-05-21T18:57:05.353Z,6.00
2023-05-21T18:59:32.511Z,6.40
2023-05-21T19:01:59.794Z,6.60
2023-05-21T19:04:27.014Z,6.20
2023-05-21T19:06:54.403Z,7.00
2023-05-21T19:09:21.492Z,6.80
2023-05-21T19:11:49.828Z,6.40
2023-05-21T19:19:14.410Z,6.40
2023-05-21T19:21:41.457Z,6.70
2023-05-21T19:24:08.503Z,6.30
2023-05-21T19:26:35.517Z,8.90
2023-05-21T19:29:02.440Z,8.00
2023-05-21T19:31:29.679Z,14.40
2023-05-21T19:33:56.693Z,13.30
2023-05-21T19:36:23.842Z,13.50
2023-05-21T19:38:52.261Z,13.70
2023-05-21T19:41:21.645Z,13.00
2023-05-21T19:46:19.125Z,13.20
2023-05-21T19:48:47.233Z,12.10
2023-05-21T19:51:14.380Z,10.00
2023-05-21T19:53:41.611Z,10.20
2023-05-21T19:56:08.791Z,8.70
2023-05-21T19:58:37.106Z,9.50
2023-05-21T20:01:05.761Z,9.50
2023-05-21T20:03:35.400Z,9.90
2023-05-21T20:08:30.267Z,10.70
2023-05-21T20:10:57.318Z,10.60
2023-05-21T20:13:24.514Z,10.50
2023-05-21T20:15:51.683Z,10.60
2023-05-21T20:18:21.984Z,9.50
2023-05-21T20:20:49.096Z,11.00
2023-05-21T20:23:16.122Z,9.30
2023-05-21T20:25:43.240Z,9.90
2023-05-21T20:28:10.460Z,7.20
2023-05-21T20:30:58.451Z,8.10
2023-05-21T20:33:31.372Z,7.70
2023-05-21T20:35:59.395Z,6.50
2023-05-21T20:38:26.719Z,7.80
2023-05-21T20:40:54.859Z,9.10
2023-05-21T20:43:23.939Z,6.80
2023-05-21T20:45:52.660Z,6.30
2023-05-21T20:48:19.809Z,6.00
2023-05-21T20:50:49.141Z,5.90
2023-05-21T20:53:17.307Z,6.70
2023-05-21T20:55:46.113Z,7.00
2023-05-21T20:58:13.279Z,7.80
2023-05-21T21:00:41.644Z,8.20
2023-05-21T21:03:12.056Z,9.00
2023-05-21T21:06:06.578Z,7.10
2023-05-21T21:08:40.194Z,7.70
2023-05-21T21:11:10.123Z,7.50
2023-05-21T21:13:37.441Z,6.80
2023-05-21T21:16:05.404Z,7.70
2023-05-21T21:18:32.723Z,9.30
2023-05-21T21:21:00.235Z,9.00
2023-05-21T21:23:29.527Z,8.20
2023-05-21T21:25:58.385Z,8.40
2023-05-21T21:28:30.806Z,7.70
2023-05-21T21:30:59.383Z,8.90
2023-05-21T21:46:58.457Z,7.90
2023-05-21T21:49:26.369Z,6.70
2023-05-21T21:52:00.489Z,11.80
2023-05-21T22:08:51.094Z,6.20
2023-05-21T22:11:41.972Z,5.40
2023-05-21T22:14:11.224Z,6.20
2023-05-21T22:38:28.409Z,5.80
2023-05-21T22:40:57.671Z,4.80
2023-05-21T22:43:40.504Z,4.90
2023-05-21T22:46:13.843Z,4.40
2023-05-21T22:49:04.504Z,4.30
2023-05-21T22:52:06.203Z,4.70
2023-05-21T22:54:37.694Z,4.30
2023-05-21T22:57:05.902Z,4.40
2023-05-21T22:59:33.329Z,4.40
2023-05-21T23:02:04.413Z,4.40
2023-05-21T23:04:43.293Z,4.40
2023-05-21T23:07:16.626Z,3.60
2023-05-21T23:10:36.601Z,4.30
2023-05-21T23:13:04.686Z,4.20
2023-05-21T23:15:32.406Z,3.90
2023-05-21T23:18:03.479Z,4.00
2023-05-21T23:20:37.583Z,4.20
2023-05-21T23:23:10.791Z,3.70
2023-05-21T23:25:38.208Z,4.10
2023-05-21T23:28:44.206Z,4.10
2023-05-21T23:31:48.780Z,4.40
2023-05-21T23:34:19.148Z,3.90
2023-05-21T23:36:50.498Z,3.80
2023-05-21T23:39:30.072Z,4.00
2023-05-21T23:42:00.256Z,4.40
2023-05-21T23:44:49.638Z,3.90
2023-05-21T23:54:29.212Z,4.50
2023-05-21T23:57:03.688Z,3.80
